sensor_id;sensor_type;location;lat;lon;timestamp;P1;durP1;ratioP1;P2;durP2;ratioP2
6941;SDS011;3510;43.200;27.920;2024-02-14T00:00:59;6.97;;;6.27;;
6941;SDS011;3510;43.200;27.920;2024-02-14T00:03:39;10.27;;;8.63;;
6941;SDS011;3510;43.200;27.920;2024-02-14T00:06:06;7.53;;;6.83;;
6941;SDS011;3510;43.200;27.920;2024-02-14T00:08:33;8.77;;;7.87;;
6941;SDS011;3510;43.200;27.920;2024-02-14T00:11:00;7.23;;;6.53;;
6941;SDS011;3510;43.200;27.920;2024-02-14T00:13:27;7.77;;;5.13;;
6941;SDS011;3510;43.200;27.920;2024-02-14T00:15:54;10.60;;;8.27;;
6941;SDS011;3510;43.200;27.920;2024-02-14T00:18:23;6.30;;;5.60;;
6941;SDS011;3510;43.200;27.920;2024-02-14T00:20:49;7.87;;;6.00;;
6941;SDS011;3510;43.200;27.920;2024-02-14T00:23:16;8.90;;;8.10;;
6941;SDS011;3510;43.200;27.920;2024-02-14T00:25:43;6.37;;;5.80;;
6941;SDS011;3510;43.200;27.920;2024-02-14T00:28:11;7.10;;;6.37;;
6941;SDS011;3510;43.200;27.920;2024-02-14T00:30:38;6.20;;;5.60;;
6941;SDS011;3510;43.200;27.920;2024-02-14T00:33:04;7.13;;;6.53;;
6941;SDS011;3510;43.200;27.920;2024-02-14T00:35:33;9.57;;;8.57;;
6941;SDS011;3510;43.200;27.920;2024-02-14T00:38:00;8.83;;;8.03;;
6941;SDS011;3510;43.200;27.920;2024-02-14T00:40:27;6.93;;;6.17;;
6941;SDS011;3510;43.200;27.920;2024-02-14T00:42:54;5.77;;;5.27;;
6941;SDS011;3510;43.200;27.920;2024-02-14T00:45:23;6.27;;;5.73;;
6941;SDS011;3510;43.200;27.920;2024-02-14T00:47:50;7.33;;;5.60;;
6941;SDS011;3510;43.200;27.920;2024-02-14T00:50:16;7.77;;;5.73;;
6941;SDS011;3510;43.200;27.920;2024-02-14T00:52:45;3.67;;;3.37;;
6941;SDS011;3510;43.200;27.920;2024-02-14T00:55:12;9.20;;;7.23;;
6941;SDS011;3510;43.200;27.920;2024-02-14T00:57:38;7.73;;;5.27;;
6941;SDS011;3510;43.200;27.920;2024-02-14T01:00:05;5.23;;;4.60;;
6941;SDS011;3510;43.200;27.920;2024-02-14T01:02:34;6.27;;;5.67;;
6941;SDS011;3510;43.200;27.920;2024-02-14T01:05:00;6.97;;;6.30;;
6941;SDS011;3510;43.200;27.920;2024-02-14T01:07:29;6.33;;;5.20;;
6941;SDS011;3510;43.200;27.920;2024-02-14T01:09:58;6.07;;;5.50;;
6941;SDS011;3510;43.200;27.920;2024-02-14T01:12:25;8.97;;;4.30;;
6941;SDS011;3510;43.200;27.920;2024-02-14T01:14:52;5.87;;;5.13;;
6941;SDS011;3510;43.200;27.920;2024-02-14T01:17:20;7.27;;;6.63;;
6941;SDS011;3510;43.200;27.920;2024-02-14T01:19:46;5.90;;;5.40;;
6941;SDS011;3510;43.200;27.920;2024-02-14T01:22:15;8.73;;;6.13;;
6941;SDS011;3510;43.200;27.920;2024-02-14T01:24:42;8.47;;;5.47;;
6941;SDS011;3510;43.200;27.920;2024-02-14T01:27:11;6.93;;;5.33;;
6941;SDS011;3510;43.200;27.920;2024-02-14T01:29:38;6.47;;;5.83;;
6941;SDS011;3510;43.200;27.920;2024-02-14T01:32:05;6.20;;;5.23;;
6941;SDS011;3510;43.200;27.920;2024-02-14T01:34:32;6.73;;;5.90;;
6941;SDS011;3510;43.200;27.920;2024-02-14T01:37:00;5.43;;;3.83;;
6941;SDS011;3510;43.200;27.920;2024-02-14T01:39:27;4.70;;;4.30;;
6941;SDS011;3510;43.200;27.920;2024-02-14T01:41:54;6.17;;;5.50;;
6941;SDS011;3510;43.200;27.920;2024-02-14T01:44:22;4.97;;;4.40;;
6941;SDS011;3510;43.200;27.920;2024-02-14T01:46:49;6.63;;;5.63;;
6941;SDS011;3510;43.200;27.920;2024-02-14T01:49:18;7.57;;;5.50;;
6941;SDS011;3510;43.200;27.920;2024-02-14T01:51:45;6.03;;;5.63;;
6941;SDS011;3510;43.200;27.920;2024-02-14T01:54:12;6.03;;;4.43;;
6941;SDS011;3510;43.200;27.920;2024-02-14T01:56:42;4.97;;;4.50;;
6941;SDS011;3510;43.200;27.920;2024-02-14T01:59:10;4.83;;;4.43;;
6941;SDS011;3510;43.200;27.920;2024-02-14T02:01:38;7.03;;;6.43;;
6941;SDS011;3510;43.200;27.920;2024-02-14T02:04:05;5.37;;;4.73;;
6941;SDS011;3510;43.200;27.920;2024-02-14T02:06:32;5.53;;;5.07;;
6941;SDS011;3510;43.200;27.920;2024-02-14T02:08:59;5.37;;;4.70;;
6941;SDS011;3510;43.200;27.920;2024-02-14T02:11:26;5.07;;;4.57;;
6941;SDS011;3510;43.200;27.920;2024-02-14T02:13:53;5.53;;;5.13;;
6941;SDS011;3510;43.200;27.920;2024-02-14T02:16:20;5.60;;;5.20;;
6941;SDS011;3510;43.200;27.920;2024-02-14T02:18:48;6.57;;;5.83;;
6941;SDS011;3510;43.200;27.920;2024-02-14T02:21:29;8.97;;;5.20;;
6941;SDS011;3510;43.200;27.920;2024-02-14T02:23:57;6.03;;;5.53;;
6941;SDS011;3510;43.200;27.920;2024-02-14T02:26:25;6.67;;;4.83;;
6941;SDS011;3510;43.200;27.920;2024-02-14T02:28:52;5.50;;;5.00;;
6941;SDS011;3510;43.200;27.920;2024-02-14T02:31:20;8.27;;;5.50;;
6941;SDS011;3510;43.200;27.920;2024-02-14T02:33:47;4.53;;;4.13;;
6941;SDS011;3510;43.200;27.920;2024-02-14T02:36:14;7.23;;;6.63;;
6941;SDS011;3510;43.200;27.920;2024-02-14T02:38:42;5.13;;;3.90;;
6941;SDS011;3510;43.200;27.920;2024-02-14T02:41:11;5.00;;;4.60;;
6941;SDS011;3510;43.200;27.920;2024-02-14T02:43:38;9.97;;;4.50;;
6941;SDS011;3510;43.200;27.920;2024-02-14T02:46:04;6.83;;;6.23;;
6941;SDS011;3510;43.200;27.920;2024-02-14T02:48:33;5.37;;;4.50;;
6941;SDS011;3510;43.200;27.920;2024-02-14T02:51:16;5.27;;;4.33;;
6941;SDS011;3510;43.200;27.920;2024-02-14T02:53:43;5.40;;;5.00;;
6941;SDS011;3510;43.200;27.920;2024-02-14T02:56:12;4.40;;;4.03;;
6941;SDS011;3510;43.200;27.920;2024-02-14T02:58:40;5.70;;;5.23;;
6941;SDS011;3510;43.200;27.920;2024-02-14T03:01:07;4.37;;;4.03;;
6941;SDS011;3510;43.200;27.920;2024-02-14T03:03:35;5.03;;;4.63;;
6941;SDS011;3510;43.200;27.920;2024-02-14T03:06:03;4.77;;;4.47;;
6941;SDS011;3510;43.200;27.920;2024-02-14T03:08:30;3.77;;;3.57;;
6941;SDS011;3510;43.200;27.920;2024-02-14T03:11:02;3.00;;;2.80;;
6941;SDS011;3510;43.200;27.920;2024-02-14T03:13:31;3.33;;;3.10;;
6941;SDS011;3510;43.200;27.920;2024-02-14T03:15:58;4.20;;;3.40;;
6941;SDS011;3510;43.200;27.920;2024-02-14T03:18:26;4.67;;;4.30;;
6941;SDS011;3510;43.200;27.920;2024-02-14T03:20:52;3.50;;;3.30;;
6941;SDS011;3510;43.200;27.920;2024-02-14T03:23:19;4.33;;;4.03;;
6941;SDS011;3510;43.200;27.920;2024-02-14T03:25:47;3.73;;;3.53;;
6941;SDS011;3510;43.200;27.920;2024-02-14T03:28:14;3.73;;;3.53;;
6941;SDS011;3510;43.200;27.920;2024-02-14T03:30:42;4.43;;;4.20;;
6941;SDS011;3510;43.200;27.920;2024-02-14T03:33:09;3.97;;;3.77;;
6941;SDS011;3510;43.200;27.920;2024-02-14T03:35:36;4.00;;;3.80;;
6941;SDS011;3510;43.200;27.920;2024-02-14T03:38:02;3.93;;;3.70;;
6941;SDS011;3510;43.200;27.920;2024-02-14T03:40:29;4.17;;;3.50;;
6941;SDS011;3510;43.200;27.920;2024-02-14T03:42:56;3.40;;;3.20;;
6941;SDS011;3510;43.200;27.920;2024-02-14T03:45:23;3.50;;;3.30;;
6941;SDS011;3510;43.200;27.920;2024-02-14T03:47:51;2.60;;;2.43;;
6941;SDS011;3510;43.200;27.920;2024-02-14T03:50:18;4.50;;;3.50;;
6941;SDS011;3510;43.200;27.920;2024-02-14T03:52:45;3.37;;;3.17;;
6941;SDS011;3510;43.200;27.920;2024-02-14T03:55:13;3.13;;;2.93;;
6941;SDS011;3510;43.200;27.920;2024-02-14T03:57:42;3.47;;;3.27;;
6941;SDS011;3510;43.200;27.920;2024-02-14T04:00:11;3.40;;;3.20;;
6941;SDS011;3510;43.200;27.920;2024-02-14T04:02:37;3.20;;;3.00;;
6941;SDS011;3510;43.200;27.920;2024-02-14T04:05:06;3.40;;;3.20;;
6941;SDS011;3510;43.200;27.920;2024-02-14T04:07:33;3.57;;;3.37;;
6941;SDS011;3510;43.200;27.920;2024-02-14T04:10:01;1.50;;;1.40;;
6941;SDS011;3510;43.200;27.920;2024-02-14T04:12:28;3.43;;;3.23;;
6941;SDS011;3510;43.200;27.920;2024-02-14T04:14:56;3.50;;;3.20;;
6941;SDS011;3510;43.200;27.920;2024-02-14T04:17:22;3.60;;;3.40;;
6941;SDS011;3510;43.200;27.920;2024-02-14T04:19:50;2.17;;;1.97;;
6941;SDS011;3510;43.200;27.920;2024-02-14T04:22:19;7.63;;;2.97;;
6941;SDS011;3510;43.200;27.920;2024-02-14T04:24:47;3.53;;;3.33;;
6941;SDS011;3510;43.200;27.920;2024-02-14T04:27:14;3.40;;;3.20;;
6941;SDS011;3510;43.200;27.920;2024-02-14T04:29:41;3.90;;;3.70;;
6941;SDS011;3510;43.200;27.920;2024-02-14T04:32:12;4.07;;;3.87;;
6941;SDS011;3510;43.200;27.920;2024-02-14T04:34:39;3.50;;;3.23;;
6941;SDS011;3510;43.200;27.920;2024-02-14T04:37:07;3.57;;;3.37;;
6941;SDS011;3510;43.200;27.920;2024-02-14T04:39:39;3.33;;;3.13;;
6941;SDS011;3510;43.200;27.920;2024-02-14T04:42:06;3.70;;;3.27;;
6941;SDS011;3510;43.200;27.920;2024-02-14T04:44:33;4.30;;;3.20;;
6941;SDS011;3510;43.200;27.920;2024-02-14T04:47:00;3.40;;;3.10;;
6941;SDS011;3510;43.200;27.920;2024-02-14T04:49:27;4.27;;;3.00;;
6941;SDS011;3510;43.200;27.920;2024-02-14T04:51:55;3.07;;;2.87;;
6941;SDS011;3510;43.200;27.920;2024-02-14T04:54:22;3.20;;;3.00;;
6941;SDS011;3510;43.200;27.920;2024-02-14T04:56:51;3.40;;;3.10;;
6941;SDS011;3510;43.200;27.920;2024-02-14T04:59:18;3.13;;;2.93;;
6941;SDS011;3510;43.200;27.920;2024-02-14T05:01:46;2.97;;;2.77;;
6941;SDS011;3510;43.200;27.920;2024-02-14T05:04:13;3.30;;;3.10;;
6941;SDS011;3510;43.200;27.920;2024-02-14T05:06:42;3.57;;;3.37;;
6941;SDS011;3510;43.200;27.920;2024-02-14T05:09:09;3.40;;;3.10;;
6941;SDS011;3510;43.200;27.920;2024-02-14T05:11:37;4.40;;;4.03;;
6941;SDS011;3510;43.200;27.920;2024-02-14T05:14:05;3.67;;;3.47;;
6941;SDS011;3510;43.200;27.920;2024-02-14T05:16:32;3.63;;;3.33;;
6941;SDS011;3510;43.200;27.920;2024-02-14T05:18:59;4.53;;;2.97;;
6941;SDS011;3510;43.200;27.920;2024-02-14T05:21:26;3.43;;;3.23;;
6941;SDS011;3510;43.200;27.920;2024-02-14T05:23:56;3.23;;;3.03;;
6941;SDS011;3510;43.200;27.920;2024-02-14T05:26:23;3.43;;;3.17;;
6941;SDS011;3510;43.200;27.920;2024-02-14T05:28:51;3.30;;;3.10;;
6941;SDS011;3510;43.200;27.920;2024-02-14T05:31:20;3.70;;;3.40;;
6941;SDS011;3510;43.200;27.920;2024-02-14T05:33:47;3.43;;;3.13;;
6941;SDS011;3510;43.200;27.920;2024-02-14T05:36:13;3.30;;;2.27;;
6941;SDS011;3510;43.200;27.920;2024-02-14T05:38:40;2.50;;;2.33;;
6941;SDS011;3510;43.200;27.920;2024-02-14T05:41:07;2.70;;;2.50;;
6941;SDS011;3510;43.200;27.920;2024-02-14T05:43:35;4.80;;;2.70;;
6941;SDS011;3510;43.200;27.920;2024-02-14T05:46:03;3.70;;;3.50;;
6941;SDS011;3510;43.200;27.920;2024-02-14T05:48:32;3.70;;;3.50;;
6941;SDS011;3510;43.200;27.920;2024-02-14T05:50:58;3.57;;;3.37;;
6941;SDS011;3510;43.200;27.920;2024-02-14T05:53:25;3.67;;;3.37;;
6941;SDS011;3510;43.200;27.920;2024-02-14T05:55:52;3.35;;;3.15;;
6941;SDS011;3510;43.200;27.920;2024-02-14T05:58:19;3.60;;;3.30;;
6941;SDS011;3510;43.200;27.920;2024-02-14T06:00:46;3.97;;;3.70;;
6941;SDS011;3510;43.200;27.920;2024-02-14T06:03:13;3.30;;;3.00;;
6941;SDS011;3510;43.200;27.920;2024-02-14T06:05:41;3.40;;;3.10;;
6941;SDS011;3510;43.200;27.920;2024-02-14T06:08:09;4.53;;;4.23;;
6941;SDS011;3510;43.200;27.920;2024-02-14T06:10:36;3.40;;;3.20;;
6941;SDS011;3510;43.200;27.920;2024-02-14T06:13:04;3.10;;;2.90;;
6941;SDS011;3510;43.200;27.920;2024-02-14T06:15:31;3.80;;;3.50;;
6941;SDS011;3510;43.200;27.920;2024-02-14T06:17:58;4.33;;;3.27;;
6941;SDS011;3510;43.200;27.920;2024-02-14T06:20:25;3.50;;;3.30;;
6941;SDS011;3510;43.200;27.920;2024-02-14T06:22:54;4.03;;;3.83;;
6941;SDS011;3510;43.200;27.920;2024-02-14T06:25:21;3.43;;;3.23;;
6941;SDS011;3510;43.200;27.920;2024-02-14T06:27:50;3.47;;;3.27;;
6941;SDS011;3510;43.200;27.920;2024-02-14T06:30:16;5.50;;;3.23;;
6941;SDS011;3510;43.200;27.920;2024-02-14T06:32:46;3.80;;;3.50;;
6941;SDS011;3510;43.200;27.920;2024-02-14T06:35:14;4.50;;;4.10;;
6941;SDS011;3510;43.200;27.920;2024-02-14T06:37:44;4.97;;;4.63;;
6941;SDS011;3510;43.200;27.920;2024-02-14T06:40:13;4.37;;;4.07;;
6941;SDS011;3510;43.200;27.920;2024-02-14T06:42:41;6.28;;;3.58;;
6941;SDS011;3510;43.200;27.920;2024-02-14T06:45:08;5.20;;;3.90;;
6941;SDS011;3510;43.200;27.920;2024-02-14T06:47:36;3.33;;;3.03;;
6941;SDS011;3510;43.200;27.920;2024-02-14T06:50:05;4.50;;;4.10;;
6941;SDS011;3510;43.200;27.920;2024-02-14T06:52:35;3.70;;;3.40;;
6941;SDS011;3510;43.200;27.920;2024-02-14T06:55:03;3.50;;;3.27;;
6941;SDS011;3510;43.200;27.920;2024-02-14T06:57:32;4.97;;;4.23;;
6941;SDS011;3510;43.200;27.920;2024-02-14T07:00:00;3.83;;;3.53;;
6941;SDS011;3510;43.200;27.920;2024-02-14T07:02:31;4.23;;;3.93;;
6941;SDS011;3510;43.200;27.920;2024-02-14T07:04:58;4.17;;;3.87;;
6941;SDS011;3510;43.200;27.920;2024-02-14T07:07:27;3.80;;;3.50;;
6941;SDS011;3510;43.200;27.920;2024-02-14T07:09:56;6.37;;;4.17;;
6941;SDS011;3510;43.200;27.920;2024-02-14T07:12:23;5.43;;;3.57;;
6941;SDS011;3510;43.200;27.920;2024-02-14T07:14:54;3.47;;;3.17;;
6941;SDS011;3510;43.200;27.920;2024-02-14T07:17:22;4.40;;;4.20;;
6941;SDS011;3510;43.200;27.920;2024-02-14T07:19:49;3.60;;;3.30;;
6941;SDS011;3510;43.200;27.920;2024-02-14T07:22:16;3.57;;;3.27;;
6941;SDS011;3510;43.200;27.920;2024-02-14T07:24:44;2.67;;;2.47;;
6941;SDS011;3510;43.200;27.920;2024-02-14T07:27:13;3.13;;;2.93;;
6941;SDS011;3510;43.200;27.920;2024-02-14T07:29:41;4.17;;;3.20;;
6941;SDS011;3510;43.200;27.920;2024-02-14T07:32:13;3.70;;;3.50;;
6941;SDS011;3510;43.200;27.920;2024-02-14T07:34:41;3.37;;;2.90;;
6941;SDS011;3510;43.200;27.920;2024-02-14T07:37:08;4.37;;;3.60;;
6941;SDS011;3510;43.200;27.920;2024-02-14T07:39:37;2.57;;;2.47;;
6941;SDS011;3510;43.200;27.920;2024-02-14T07:42:04;3.30;;;3.10;;
6941;SDS011;3510;43.200;27.920;2024-02-14T07:44:32;2.77;;;2.50;;
6941;SDS011;3510;43.200;27.920;2024-02-14T07:46:58;5.57;;;3.20;;
6941;SDS011;3510;43.200;27.920;2024-02-14T07:49:27;3.17;;;2.97;;
6941;SDS011;3510;43.200;27.920;2024-02-14T07:51:55;5.23;;;3.07;;
6941;SDS011;3510;43.200;27.920;2024-02-14T07:54:25;3.90;;;3.57;;
6941;SDS011;3510;43.200;27.920;2024-02-14T07:56:52;2.93;;;2.70;;
6941;SDS011;3510;43.200;27.920;2024-02-14T07:59:24;3.03;;;2.83;;
6941;SDS011;3510;43.200;27.920;2024-02-14T08:02:05;3.30;;;3.00;;
6941;SDS011;3510;43.200;27.920;2024-02-14T08:04:33;3.43;;;3.17;;
6941;SDS011;3510;43.200;27.920;2024-02-14T08:07:01;6.97;;;3.63;;
6941;SDS011;3510;43.200;27.920;2024-02-14T08:09:30;2.93;;;2.83;;
6941;SDS011;3510;43.200;27.920;2024-02-14T08:11:58;3.87;;;3.53;;
6941;SDS011;3510;43.200;27.920;2024-02-14T08:14:26;6.33;;;4.23;;
6941;SDS011;3510;43.200;27.920;2024-02-14T08:16:53;4.00;;;3.20;;
6941;SDS011;3510;43.200;27.920;2024-02-14T08:19:20;2.90;;;2.70;;
6941;SDS011;3510;43.200;27.920;2024-02-14T08:24:37;2.70;;;2.50;;
6941;SDS011;3510;43.200;27.920;2024-02-14T08:27:04;3.37;;;2.70;;
6941;SDS011;3510;43.200;27.920;2024-02-14T08:29:32;2.43;;;2.23;;
6941;SDS011;3510;43.200;27.920;2024-02-14T08:32:03;2.50;;;2.30;;
6941;SDS011;3510;43.200;27.920;2024-02-14T08:34:32;2.00;;;1.80;;
6941;SDS011;3510;43.200;27.920;2024-02-14T08:37:00;2.25;;;2.00;;
6941;SDS011;3510;43.200;27.920;2024-02-14T08:39:28;3.03;;;1.87;;
6941;SDS011;3510;43.200;27.920;2024-02-14T08:41:56;2.80;;;1.70;;
6941;SDS011;3510;43.200;27.920;2024-02-14T08:44:32;1.93;;;1.83;;
6941;SDS011;3510;43.200;27.920;2024-02-14T08:47:00;1.57;;;1.47;;
6941;SDS011;3510;43.200;27.920;2024-02-14T08:49:27;1.60;;;1.50;;
6941;SDS011;3510;43.200;27.920;2024-02-14T08:51:55;2.00;;;1.80;;
6941;SDS011;3510;43.200;27.920;2024-02-14T09:19:59;2.53;;;2.43;;
6941;SDS011;3510;43.200;27.920;2024-02-14T09:22:26;1.87;;;1.77;;
6941;SDS011;3510;43.200;27.920;2024-02-14T09:25:07;1.67;;;1.57;;
6941;SDS011;3510;43.200;27.920;2024-02-14T09:27:35;2.20;;;1.90;;
6941;SDS011;3510;43.200;27.920;2024-02-14T09:30:06;2.33;;;1.50;;
6941;SDS011;3510;43.200;27.920;2024-02-14T09:32:47;2.37;;;2.20;;
6941;SDS011;3510;43.200;27.920;2024-02-14T09:38:28;2.00;;;1.90;;
6941;SDS011;3510;43.200;27.920;2024-02-14T09:40:58;2.00;;;1.90;;
6941;SDS011;3510;43.200;27.920;2024-02-14T09:43:34;1.60;;;1.30;;
6941;SDS011;3510;43.200;27.920;2024-02-14T09:46:07;2.33;;;2.10;;
6941;SDS011;3510;43.200;27.920;2024-02-14T09:48:34;2.10;;;2.00;;
6941;SDS011;3510;43.200;27.920;2024-02-14T10:03:30;3.00;;;1.63;;
6941;SDS011;3510;43.200;27.920;2024-02-14T10:05:58;1.80;;;1.70;;
6941;SDS011;3510;43.200;27.920;2024-02-14T10:08:39;3.60;;;1.80;;
6941;SDS011;3510;43.200;27.920;2024-02-14T10:11:08;2.37;;;1.60;;
6941;SDS011;3510;43.200;27.920;2024-02-14T10:13:36;2.43;;;1.50;;
6941;SDS011;3510;43.200;27.920;2024-02-14T10:16:05;4.73;;;2.10;;
6941;SDS011;3510;43.200;27.920;2024-02-14T10:18:33;1.83;;;1.73;;
6941;SDS011;3510;43.200;27.920;2024-02-14T10:21:00;1.77;;;1.63;;
6941;SDS011;3510;43.200;27.920;2024-02-14T10:23:29;2.13;;;2.03;;
6941;SDS011;3510;43.200;27.920;2024-02-14T10:25:58;1.90;;;1.80;;
6941;SDS011;3510;43.200;27.920;2024-02-14T10:28:25;1.90;;;1.80;;
6941;SDS011;3510;43.200;27.920;2024-02-14T10:30:54;2.80;;;2.60;;
6941;SDS011;3510;43.200;27.920;2024-02-14T10:33:24;2.40;;;2.30;;
6941;SDS011;3510;43.200;27.920;2024-02-14T10:36:08;1.57;;;1.47;;
6941;SDS011;3510;43.200;27.920;2024-02-14T10:38:52;2.40;;;2.20;;
6941;SDS011;3510;43.200;27.920;2024-02-14T10:41:33;2.10;;;2.00;;
6941;SDS011;3510;43.200;27.920;2024-02-14T10:44:02;1.70;;;1.60;;
6941;SDS011;3510;43.200;27.920;2024-02-14T10:46:31;2.53;;;1.90;;
6941;SDS011;3510;43.200;27.920;2024-02-14T10:49:05;7.27;;;1.87;;
6941;SDS011;3510;43.200;27.920;2024-02-14T10:51:34;1.03;;;1.03;;
6941;SDS011;3510;43.200;27.920;2024-02-14T10:54:03;1.90;;;1.80;;
6941;SDS011;3510;43.200;27.920;2024-02-14T10:56:32;2.03;;;1.90;;
6941;SDS011;3510;43.200;27.920;2024-02-14T10:58:59;1.60;;;1.50;;
6941;SDS011;3510;43.200;27.920;2024-02-14T11:01:28;1.70;;;1.60;;
6941;SDS011;3510;43.200;27.920;2024-02-14T11:03:58;2.87;;;1.87;;
6941;SDS011;3510;43.200;27.920;2024-02-14T11:06:30;2.20;;;2.10;;
6941;SDS011;3510;43.200;27.920;2024-02-14T11:09:00;2.07;;;1.97;;
6941;SDS011;3510;43.200;27.920;2024-02-14T11:11:33;1.60;;;1.50;;
6941;SDS011;3510;43.200;27.920;2024-02-14T11:17:08;1.60;;;1.50;;
6941;SDS011;3510;43.200;27.920;2024-02-14T11:19:37;1.63;;;1.53;;
6941;SDS011;3510;43.200;27.920;2024-02-14T11:22:13;1.50;;;1.40;;
6941;SDS011;3510;43.200;27.920;2024-02-14T11:24:45;2.47;;;1.40;;
6941;SDS011;3510;43.200;27.920;2024-02-14T11:27:12;1.70;;;1.60;;
6941;SDS011;3510;43.200;27.920;2024-02-14T11:29:40;0.87;;;0.87;;
6941;SDS011;3510;43.200;27.920;2024-02-14T11:32:17;1.57;;;1.47;;
6941;SDS011;3510;43.200;27.920;2024-02-14T11:34:44;3.13;;;1.70;;
6941;SDS011;3510;43.200;27.920;2024-02-14T11:37:21;1.10;;;1.10;;
6941;SDS011;3510;43.200;27.920;2024-02-14T11:39:54;2.70;;;1.87;;
6941;SDS011;3510;43.200;27.920;2024-02-14T11:42:23;1.70;;;1.33;;
6941;SDS011;3510;43.200;27.920;2024-02-14T11:44:50;2.57;;;1.50;;
6941;SDS011;3510;43.200;27.920;2024-02-14T11:47:17;1.90;;;1.80;;
6941;SDS011;3510;43.200;27.920;2024-02-14T11:49:46;2.00;;;1.87;;
6941;SDS011;3510;43.200;27.920;2024-02-14T11:52:13;1.73;;;1.63;;
6941;SDS011;3510;43.200;27.920;2024-02-14T11:54:46;1.33;;;1.23;;
6941;SDS011;3510;43.200;27.920;2024-02-14T11:57:16;1.47;;;1.40;;
6941;SDS011;3510;43.200;27.920;2024-02-14T11:59:45;2.10;;;2.00;;
6941;SDS011;3510;43.200;27.920;2024-02-14T12:02:18;1.10;;;1.10;;
6941;SDS011;3510;43.200;27.920;2024-02-14T12:04:45;1.73;;;1.63;;
6941;SDS011;3510;43.200;27.920;2024-02-14T12:07:15;1.50;;;1.40;;
6941;SDS011;3510;43.200;27.920;2024-02-14T12:09:43;1.63;;;1.40;;
6941;SDS011;3510;43.200;27.920;2024-02-14T12:12:13;3.67;;;1.00;;
6941;SDS011;3510;43.200;27.920;2024-02-14T12:14:43;0.90;;;0.90;;
6941;SDS011;3510;43.200;27.920;2024-02-14T12:17:15;1.20;;;1.20;;
6941;SDS011;3510;43.200;27.920;2024-02-14T12:19:43;1.13;;;1.13;;
6941;SDS011;3510;43.200;27.920;2024-02-14T12:22:15;2.53;;;1.43;;
6941;SDS011;3510;43.200;27.920;2024-02-14T12:24:44;2.37;;;1.10;;
6941;SDS011;3510;43.200;27.920;2024-02-14T12:27:14;1.20;;;1.10;;
6941;SDS011;3510;43.200;27.920;2024-02-14T12:29:45;1.43;;;1.33;;
6941;SDS011;3510;43.200;27.920;2024-02-14T12:32:15;1.43;;;1.37;;
6941;SDS011;3510;43.200;27.920;2024-02-14T12:34:43;1.10;;;1.10;;
6941;SDS011;3510;43.200;27.920;2024-02-14T12:37:11;1.10;;;1.10;;
6941;SDS011;3510;43.200;27.920;2024-02-14T12:39:38;1.20;;;1.10;;
6941;SDS011;3510;43.200;27.920;2024-02-14T12:42:05;1.70;;;1.60;;
6941;SDS011;3510;43.200;27.920;2024-02-14T12:44:34;1.27;;;1.23;;
6941;SDS011;3510;43.200;27.920;2024-02-14T12:47:01;2.10;;;2.00;;
6941;SDS011;3510;43.200;27.920;2024-02-14T12:49:28;1.90;;;1.80;;
6941;SDS011;3510;43.200;27.920;2024-02-14T12:51:56;1.57;;;1.47;;
6941;SDS011;3510;43.200;27.920;2024-02-14T12:54:23;3.13;;;1.60;;
6941;SDS011;3510;43.200;27.920;2024-02-14T12:56:51;2.20;;;1.97;;
6941;SDS011;3510;43.200;27.920;2024-02-14T12:59:18;2.63;;;2.00;;
6941;SDS011;3510;43.200;27.920;2024-02-14T13:01:47;1.63;;;1.53;;
6941;SDS011;3510;43.200;27.920;2024-02-14T13:04:14;1.33;;;1.30;;
6941;SDS011;3510;43.200;27.920;2024-02-14T13:06:42;1.80;;;1.70;;
6941;SDS011;3510;43.200;27.920;2024-02-14T13:09:09;1.93;;;1.57;;
6941;SDS011;3510;43.200;27.920;2024-02-14T13:11:36;5.60;;;2.13;;
6941;SDS011;3510;43.200;27.920;2024-02-14T13:14:03;2.40;;;2.30;;
6941;SDS011;3510;43.200;27.920;2024-02-14T13:16:30;5.43;;;2.50;;
6941;SDS011;3510;43.200;27.920;2024-02-14T13:18:59;3.13;;;1.57;;
6941;SDS011;3510;43.200;27.920;2024-02-14T13:21:25;2.03;;;1.87;;
6941;SDS011;3510;43.200;27.920;2024-02-14T13:23:54;2.13;;;1.83;;
6941;SDS011;3510;43.200;27.920;2024-02-14T13:26:22;1.60;;;1.50;;
6941;SDS011;3510;43.200;27.920;2024-02-14T13:28:50;1.77;;;1.67;;
6941;SDS011;3510;43.200;27.920;2024-02-14T13:31:17;2.97;;;1.70;;
6941;SDS011;3510;43.200;27.920;2024-02-14T13:33:44;12.47;;;2.47;;
6941;SDS011;3510;43.200;27.920;2024-02-14T13:36:12;2.53;;;1.53;;
6941;SDS011;3510;43.200;27.920;2024-02-14T13:38:40;2.93;;;2.73;;
6941;SDS011;3510;43.200;27.920;2024-02-14T13:41:21;2.27;;;2.07;;
6941;SDS011;3510;43.200;27.920;2024-02-14T13:43:48;2.30;;;2.10;;
6941;SDS011;3510;43.200;27.920;2024-02-14T13:46:15;1.37;;;1.27;;
6941;SDS011;3510;43.200;27.920;2024-02-14T13:48:55;3.93;;;2.10;;
6941;SDS011;3510;43.200;27.920;2024-02-14T13:51:24;2.40;;;2.20;;
6941;SDS011;3510;43.200;27.920;2024-02-14T13:53:52;1.90;;;1.80;;
6941;SDS011;3510;43.200;27.920;2024-02-14T13:56:19;1.40;;;1.40;;
6941;SDS011;3510;43.200;27.920;2024-02-14T13:58:47;3.43;;;2.50;;
6941;SDS011;3510;43.200;27.920;2024-02-14T14:01:15;3.00;;;2.17;;
6941;SDS011;3510;43.200;27.920;2024-02-14T14:03:42;2.47;;;1.83;;
6941;SDS011;3510;43.200;27.920;2024-02-14T14:06:09;4.23;;;2.47;;
6941;SDS011;3510;43.200;27.920;2024-02-14T14:08:39;2.20;;;2.10;;
6941;SDS011;3510;43.200;27.920;2024-02-14T14:11:10;2.80;;;2.60;;
6941;SDS011;3510;43.200;27.920;2024-02-14T14:13:37;5.03;;;1.80;;
6941;SDS011;3510;43.200;27.920;2024-02-14T14:16:04;2.57;;;2.30;;
6941;SDS011;3510;43.200;27.920;2024-02-14T14:18:31;2.10;;;1.90;;
6941;SDS011;3510;43.200;27.920;2024-02-14T14:20:58;2.33;;;2.23;;
6941;SDS011;3510;43.200;27.920;2024-02-14T14:23:25;3.20;;;3.00;;
6941;SDS011;3510;43.200;27.920;2024-02-14T14:25:54;6.20;;;2.47;;
6941;SDS011;3510;43.200;27.920;2024-02-14T14:28:21;2.37;;;2.27;;
6941;SDS011;3510;43.200;27.920;2024-02-14T14:30:50;2.10;;;2.00;;
6941;SDS011;3510;43.200;27.920;2024-02-14T14:33:18;2.13;;;2.00;;
6941;SDS011;3510;43.200;27.920;2024-02-14T14:35:45;2.57;;;2.40;;
6941;SDS011;3510;43.200;27.920;2024-02-14T14:38:14;1.07;;;1.07;;
6941;SDS011;3510;43.200;27.920;2024-02-14T14:40:41;1.83;;;1.70;;
6941;SDS011;3510;43.200;27.920;2024-02-14T14:43:12;3.33;;;2.30;;
6941;SDS011;3510;43.200;27.920;2024-02-14T14:45:39;4.17;;;2.10;;
6941;SDS011;3510;43.200;27.920;2024-02-14T14:48:07;2.70;;;2.47;;
6941;SDS011;3510;43.200;27.920;2024-02-14T14:50:34;4.17;;;3.20;;
6941;SDS011;3510;43.200;27.920;2024-02-14T14:53:02;2.20;;;2.10;;
6941;SDS011;3510;43.200;27.920;2024-02-14T14:55:40;1.90;;;1.80;;
6941;SDS011;3510;43.200;27.920;2024-02-14T14:58:18;2.93;;;2.50;;
6941;SDS011;3510;43.200;27.920;2024-02-14T15:00:46;4.17;;;2.63;;
6941;SDS011;3510;43.200;27.920;2024-02-14T15:03:13;5.60;;;2.60;;
6941;SDS011;3510;43.200;27.920;2024-02-14T15:05:40;11.97;;;2.50;;
6941;SDS011;3510;43.200;27.920;2024-02-14T15:08:07;5.63;;;2.87;;
6941;SDS011;3510;43.200;27.920;2024-02-14T15:10:34;6.70;;;2.80;;
6941;SDS011;3510;43.200;27.920;2024-02-14T15:13:03;3.73;;;2.37;;
6941;SDS011;3510;43.200;27.920;2024-02-14T15:15:32;1.93;;;1.83;;
6941;SDS011;3510;43.200;27.920;2024-02-14T15:17:59;1.80;;;1.70;;
6941;SDS011;3510;43.200;27.920;2024-02-14T15:20:27;1.63;;;1.53;;
6941;SDS011;3510;43.200;27.920;2024-02-14T15:22:55;1.93;;;1.77;;
6941;SDS011;3510;43.200;27.920;2024-02-14T15:25:22;1.67;;;1.13;;
6941;SDS011;3510;43.200;27.920;2024-02-14T15:27:50;2.03;;;1.43;;
6941;SDS011;3510;43.200;27.920;2024-02-14T15:30:21;2.10;;;2.00;;
6941;SDS011;3510;43.200;27.920;2024-02-14T15:33:07;1.53;;;1.43;;
6941;SDS011;3510;43.200;27.920;2024-02-14T15:35:49;2.00;;;1.90;;
6941;SDS011;3510;43.200;27.920;2024-02-14T15:38:16;1.57;;;1.47;;
6941;SDS011;3510;43.200;27.920;2024-02-14T15:40:44;4.37;;;1.73;;
6941;SDS011;3510;43.200;27.920;2024-02-14T15:43:12;5.63;;;2.57;;
6941;SDS011;3510;43.200;27.920;2024-02-14T15:45:39;3.33;;;2.00;;
6941;SDS011;3510;43.200;27.920;2024-02-14T15:48:07;2.07;;;1.97;;
6941;SDS011;3510;43.200;27.920;2024-02-14T15:50:34;2.63;;;2.43;;
6941;SDS011;3510;43.200;27.920;2024-02-14T15:53:02;2.10;;;2.00;;
6941;SDS011;3510;43.200;27.920;2024-02-14T15:55:30;4.17;;;2.30;;